Time;durP1;ratioP1;P1;durP2;ratioP2;P2;SDS_P1;SDS_P2;PMS_P1;PMS_P2;Temp;Humidity;BMP_temperature;BMP_pressure;BME280_temperature;BME280_humidity;BME280_pressure;Samples;Min_cycle;Max_cycle;Signal;HPM_P1;HPM_P2
2021/12/07 00:02:38;;;;;;;50.03;21.40;;;;;;;;;;6218049;23;20195;-87
2021/12/07 00:05:47;;;;;;;48.57;19.17;;;;;;;;;;6241246;22;20553;-89
2021/12/07 02:06:38;;;;;;;56.43;21.10;;;;;;;;;;6255428;22;20215;-90
2021/12/07 02:09:48;;;;;;;55.97;22.00;;;;;;;;;;6261512;22;20170;-90
2021/12/07 02:13:01;;;;;;;53.20;20.93;;;;;;;;;;6241732;23;20155;-91
2021/12/07 02:16:07;;;;;;;62.90;22.93;;;;;;;;;;6243375;23;20190;-92
2021/12/07 02:19:13;;;;;;;58.70;21.67;;;;;;;;;;6241806;23;20150;-89
2021/12/07 02:22:20;;;;;;;60.07;22.20;;;;;;;;;;6240429;22;20689;-90
2021/12/07 02:25:32;;;;;;;54.27;20.10;;;;;;;;;;6238674;23;20498;-89
2021/12/07 02:28:39;;;;;;;56.27;21.33;;;;;;;;;;6238748;23;20166;-90
2021/12/07 02:31:44;;;;;;;50.23;21.07;;;;;;;;;;6238175;23;20166;-90
2021/12/07 02:34:57;;;;;;;50.63;20.87;;;;;;;;;;6239533;23;20153;-90
2021/12/07 02:38:04;;;;;;;62.07;22.50;;;;;;;;;;6239825;22;20338;-90
2021/12/07 02:41:13;;;;;;;53.27;20.10;;;;;;;;;;6241163;23;20166;-90
2021/12/07 02:44:18;;;;;;;55.53;21.37;;;;;;;;;;6239633;23;20269;-90
2021/12/07 02:47:23;;;;;;;53.57;20.70;;;;;;;;;;6240210;23;20201;-90
2021/12/07 02:50:29;;;;;;;53.70;20.83;;;;;;;;;;6239677;23;20182;-89
2021/12/07 02:53:38;;;;;;;61.03;21.80;;;;;;;;;;6240145;23;20182;-91
2021/12/07 02:56:44;;;;;;;49.83;19.93;;;;;;;;;;6240381;23;20166;-89
2021/12/07 02:59:57;;;;;;;53.70;20.97;;;;;;;;;;6259960;22;20210;-89
2021/12/07 03:03:07;;;;;;;54.73;20.80;;;;;;;;;;6241396;23;20171;-91
2021/12/07 03:06:19;;;;;;;56.33;20.77;;;;;;;;;;6229606;23;20178;-91
2021/12/07 03:26:45;;;;;;;55.13;19.63;;;;;;;;;;6228159;23;20226;-90
2021/12/07 03:29:50;;;;;;;55.23;21.03;;;;;;;;;;6229783;23;20175;-91
2021/12/07 03:32:59;;;;;;;59.17;20.40;;;;;;;;;;6229980;23;20170;-89
2021/12/07 03:36:06;;;;;;;58.47;20.87;;;;;;;;;;6229572;23;20163;-89
2021/12/07 03:39:12;;;;;;;52.50;20.67;;;;;;;;;;6231759;23;20331;-90
2021/12/07 03:42:18;;;;;;;57.47;21.47;;;;;;;;;;6230169;23;20564;-90
2021/12/07 03:45:25;;;;;;;63.43;22.77;;;;;;;;;;6231447;23;20179;-91
2021/12/07 03:48:34;;;;;;;59.77;21.83;;;;;;;;;;6230929;23;20223;-89
2021/12/07 03:51:39;;;;;;;59.83;21.60;;;;;;;;;;6230584;23;20214;-88
2021/12/07 03:54:46;;;;;;;60.10;20.90;;;;;;;;;;6231875;23;20163;-90
2021/12/07 03:57:53;;;;;;;58.87;22.27;;;;;;;;;;6230865;23;20769;-90
2021/12/07 04:01:00;;;;;;;57.17;21.30;;;;;;;;;;6232499;23;20175;-89
2021/12/07 04:04:05;;;;;;;56.03;20.80;;;;;;;;;;6232400;23;20639;-88
2021/12/07 04:11:03;;;;;;;62.63;22.87;;;;;;;;;;6230769;23;20187;-90
2021/12/07 04:14:09;;;;;;;62.93;22.20;;;;;;;;;;6233012;23;20172;-88
2021/12/07 04:17:15;;;;;;;61.33;21.60;;;;;;;;;;6232491;23;20614;-92
2021/12/07 04:20:22;;;;;;;59.70;21.77;;;;;;;;;;6235408;23;20251;-88
2021/12/07 04:23:27;;;;;;;60.20;22.87;;;;;;;;;;6230745;23;20202;-88
2021/12/07 04:26:33;;;;;;;63.67;23.70;;;;;;;;;;6228984;23;20171;-90
2021/12/07 04:29:39;;;;;;;59.27;22.50;;;;;;;;;;6229371;23;20155;-90
2021/12/07 04:32:45;;;;;;;60.07;21.67;;;;;;;;;;6228523;23;20215;-92
2021/12/07 04:35:51;;;;;;;60.03;21.77;;;;;;;;;;6228892;23;20202;-89
2021/12/07 04:38:56;;;;;;;63.67;23.30;;;;;;;;;;6229284;23;20166;-89
2021/12/07 04:42:04;;;;;;;57.33;22.77;;;;;;;;;;6230196;23;20196;-89
2021/12/07 04:45:21;;;;;;;61.00;21.67;;;;;;;;;;6231209;23;20243;-89
2021/12/07 04:58:37;;;;;;;57.57;22.33;;;;;;;;;;6231234;23;20551;-91
2021/12/07 05:01:47;;;;;;;60.77;22.73;;;;;;;;;;6229822;23;20451;-90
2021/12/07 05:04:54;;;;;;;63.47;21.93;;;;;;;;;;6238100;23;20283;-89
2021/12/07 05:08:05;;;;;;;64.93;24.00;;;;;;;;;;6242836;23;20166;-90
2021/12/07 05:11:32;;;;;;;64.00;23.47;;;;;;;;;;6245000;23;20174;-89
2021/12/07 05:14:38;;;;;;;70.20;24.07;;;;;;;;;;6243054;23;20179;-91
2021/12/07 05:18:00;;;;;;;61.70;22.20;;;;;;;;;;6244106;23;20191;-89
2021/12/07 05:24:36;;;;;;;66.63;24.57;;;;;;;;;;6244739;22;20254;-88
2021/12/07 05:37:59;;;;;;;64.90;22.63;;;;;;;;;;6244850;23;20625;-88
2021/12/07 05:41:06;;;;;;;59.13;22.47;;;;;;;;;;6262863;23;20278;-91
2021/12/07 05:44:12;;;;;;;55.87;22.70;;;;;;;;;;6243455;23;20210;-91
2021/12/07 05:47:17;;;;;;;54.47;21.97;;;;;;;;;;6242361;23;20229;-89
2021/12/07 05:50:25;;;;;;;56.73;21.70;;;;;;;;;;6244597;23;20155;-89
2021/12/07 05:53:34;;;;;;;52.97;20.97;;;;;;;;;;6242723;23;20170;-91
2021/12/07 05:56:40;;;;;;;59.30;21.40;;;;;;;;;;6260775;23;20174;-88
2021/12/07 05:59:45;;;;;;;58.37;22.03;;;;;;;;;;6241677;23;20267;-88
2021/12/07 06:02:51;;;;;;;57.77;22.37;;;;;;;;;;6242557;23;20174;-89
2021/12/07 06:06:01;;;;;;;53.63;21.30;;;;;;;;;;6245370;22;20224;-90
2021/12/07 06:09:12;;;;;;;52.07;21.47;;;;;;;;;;6260480;23;20171;-89
2021/12/07 06:12:18;;;;;;;54.50;22.30;;;;;;;;;;6261375;22;20167;-87
2021/12/07 06:15:24;;;;;;;50.20;20.83;;;;;;;;;;6243415;23;20213;-89
2021/12/07 06:21:48;;;;;;;51.30;20.17;;;;;;;;;;6243676;23;20198;-88
2021/12/07 06:24:56;;;;;;;52.07;20.77;;;;;;;;;;6244871;22;20193;-87
2021/12/07 06:28:02;;;;;;;46.57;17.77;;;;;;;;;;6242473;23;20170;-88
2021/12/07 06:31:07;;;;;;;46.97;18.63;;;;;;;;;;6261375;23;20247;-88
2021/12/07 06:34:20;;;;;;;43.03;17.87;;;;;;;;;;6244466;23;20170;-91
2021/12/07 06:40:55;;;;;;;35.77;15.30;;;;;;;;;;6244831;23;20286;-90
2021/12/07 06:47:20;;;;;;;33.03;14.13;;;;;;;;;;6241415;23;20231;-91
2021/12/07 06:50:26;;;;;;;34.20;15.43;;;;;;;;;;6241838;22;20157;-92
2021/12/07 06:53:35;;;;;;;39.47;15.47;;;;;;;;;;6243225;23;20194;-90
2021/12/07 06:56:42;;;;;;;34.73;15.20;;;;;;;;;;6241689;23;20174;-90
2021/12/07 06:59:48;;;;;;;32.87;15.07;;;;;;;;;;6244244;23;20190;-90
2021/12/07 07:02:53;;;;;;;34.33;14.33;;;;;;;;;;6241262;23;20163;-92
2021/12/07 07:06:25;;;;;;;35.57;15.00;;;;;;;;;;6243094;23;20209;-88
2021/12/07 07:09:30;;;;;;;37.80;15.73;;;;;;;;;;6242738;23;20170;-88
2021/12/07 07:12:37;;;;;;;33.63;15.10;;;;;;;;;;6241254;23;20247;-90
2021/12/07 07:15:47;;;;;;;30.63;14.13;;;;;;;;;;6242609;23;20190;-89
2021/12/07 07:18:53;;;;;;;28.23;13.80;;;;;;;;;;6240765;23;20171;-88
2021/12/07 07:22:01;;;;;;;33.27;14.80;;;;;;;;;;6241828;22;20158;-88
2021/12/07 07:25:08;;;;;;;27.33;12.23;;;;;;;;;;6261356;23;20194;-90
2021/12/07 07:28:14;;;;;;;30.33;13.80;;;;;;;;;;6242270;23;20150;-90
2021/12/07 07:31:19;;;;;;;29.43;13.30;;;;;;;;;;6240935;23;20178;-91
2021/12/07 07:34:24;;;;;;;124.13;33.30;;;;;;;;;;6245005;23;20174;-89
2021/12/07 07:37:29;;;;;;;53.20;20.50;;;;;;;;;;6242249;23;20171;-89
2021/12/07 07:40:35;;;;;;;45.37;18.07;;;;;;;;;;6243989;23;20157;-90
2021/12/07 07:43:42;;;;;;;29.33;13.97;;;;;;;;;;6245423;22;20174;-89
2021/12/07 07:46:53;;;;;;;29.80;14.70;;;;;;;;;;6245465;22;20175;-91
2021/12/07 07:49:58;;;;;;;40.27;16.23;;;;;;;;;;6243749;23;20174;-88
2021/12/07 07:53:06;;;;;;;31.77;14.70;;;;;;;;;;6247197;23;20166;-89
2021/12/07 07:56:12;;;;;;;29.00;14.33;;;;;;;;;;6242889;23;20169;-90
2021/12/07 07:59:22;;;;;;;29.03;12.73;;;;;;;;;;6250176;22;20197;-91
2021/12/07 08:02:29;;;;;;;21.93;10.97;;;;;;;;;;6246816;23;20491;-90
2021/12/07 08:05:34;;;;;;;24.03;11.77;;;;;;;;;;6244508;23;20189;-91
2021/12/07 08:08:44;;;;;;;27.93;11.53;;;;;;;;;;6244602;23;20170;-90
2021/12/07 08:11:52;;;;;;;23.03;9.40;;;;;;;;;;6244752;22;20229;-90
2021/12/07 08:14:59;;;;;;;18.63;9.87;;;;;;;;;;6244319;22;20170;-89
2021/12/07 08:18:06;;;;;;;33.57;11.57;;;;;;;;;;6243343;23;20214;-90
2021/12/07 08:21:11;;;;;;;24.67;11.23;;;;;;;;;;6243786;23;20657;-89
2021/12/07 08:24:17;;;;;;;21.60;10.27;;;;;;;;;;6242621;23;20167;-88
2021/12/07 08:27:22;;;;;;;21.40;9.90;;;;;;;;;;6243349;22;20190;-90
2021/12/07 08:30:28;;;;;;;19.57;9.17;;;;;;;;;;6245101;23;20161;-91
2021/12/07 08:33:34;;;;;;;19.73;9.63;;;;;;;;;;6245785;23;20194;-90
2021/12/07 08:36:41;;;;;;;22.40;9.40;;;;;;;;;;6246946;23;20174;-89
2021/12/07 08:39:46;;;;;;;19.57;10.50;;;;;;;;;;6243627;23;20167;-89
2021/12/07 08:42:53;;;;;;;22.43;9.37;;;;;;;;;;6243087;22;20170;-88
2021/12/07 08:46:01;;;;;;;18.03;9.03;;;;;;;;;;6261822;23;20218;-89
2021/12/07 08:49:07;;;;;;;16.00;8.40;;;;;;;;;;6244048;23;20226;-90
2021/12/07 08:52:13;;;;;;;16.97;8.73;;;;;;;;;;6243614;23;20174;-91
2021/12/07 09:02:16;;;;;;;18.20;9.27;;;;;;;;;;6265194;22;20167;-91
2021/12/07 09:05:21;;;;;;;20.00;9.60;;;;;;;;;;6248027;23;20213;-90
2021/12/07 16:17:00;;;;;;;14.55;6.35;;;;;;;;;;6243221;22;20516;-89
2021/12/07 16:20:06;;;;;;;16.23;6.03;;;;;;;;;;6247803;22;20162;-91
2021/12/07 16:23:12;;;;;;;13.33;5.43;;;;;;;;;;6261805;23;20174;-89
2021/12/07 16:26:19;;;;;;;13.83;6.43;;;;;;;;;;6246697;23;20178;-89
2021/12/07 16:29:24;;;;;;;13.57;4.93;;;;;;;;;;6245428;23;20186;-88
2021/12/07 16:32:30;;;;;;;14.03;6.23;;;;;;;;;;6247377;22;20154;-90
2021/12/07 16:35:36;;;;;;;19.83;7.07;;;;;;;;;;6267972;23;20538;-90
2021/12/07 16:38:43;;;;;;;13.20;4.90;;;;;;;;;;6251429;23;20170;-89
2021/12/07 16:41:48;;;;;;;14.33;5.87;;;;;;;;;;6248649;22;20153;-88
2021/12/07 16:44:54;;;;;;;11.97;6.27;;;;;;;;;;6248475;23;20259;-88
2021/12/07 16:48:02;;;;;;;21.60;8.43;;;;;;;;;;6247912;22;20257;-89
2021/12/07 16:51:08;;;;;;;13.27;6.00;;;;;;;;;;6247566;23;20216;-89
2021/12/07 16:54:14;;;;;;;17.90;7.00;;;;;;;;;;6250010;23;20270;-90
2021/12/07 16:57:20;;;;;;;11.80;6.37;;;;;;;;;;6265387;22;20162;-89
2021/12/07 17:00:27;;;;;;;15.93;6.83;;;;;;;;;;6247575;22;20174;-90
2021/12/07 17:03:45;;;;;;;17.13;7.23;;;;;;;;;;6248341;22;20167;-90
2021/12/07 17:06:54;;;;;;;20.50;8.53;;;;;;;;;;6268216;22;20178;-89
2021/12/07 17:10:01;;;;;;;16.50;7.00;;;;;;;;;;6249925;22;20182;-89
2021/12/07 17:13:20;;;;;;;13.33;6.87;;;;;;;;;;6252569;23;20277;-88
2021/12/07 17:16:30;;;;;;;12.27;6.33;;;;;;;;;;6250654;23;20177;-91
2021/12/07 21:14:26;;;;;;;21.50;9.50;;;;;;;;;;6239691;22;20211;-89
2021/12/07 21:17:32;;;;;;;23.70;9.57;;;;;;;;;;6243558;23;20166;-87
2021/12/07 21:20:38;;;;;;;21.67;10.43;;;;;;;;;;6243982;23;20173;-88
2021/12/07 21:23:50;;;;;;;26.73;11.03;;;;;;;;;;6259663;23;20169;-90
2021/12/07 21:26:55;;;;;;;23.40;9.43;;;;;;;;;;6242551;23;20186;-89
2021/12/07 21:30:01;;;;;;;21.57;10.90;;;;;;;;;;6242894;23;20151;-88
2021/12/07 21:33:07;;;;;;;20.23;10.50;;;;;;;;;;6242519;23;20174;-89
2021/12/07 21:36:12;;;;;;;21.37;9.57;;;;;;;;;;6259354;23;20170;-87
2021/12/07 21:39:18;;;;;;;20.37;9.53;;;;;;;;;;6238031;23;20277;-90
2021/12/07 21:42:23;;;;;;;20.20;9.73;;;;;;;;;;6239341;23;20193;-87
2021/12/07 21:45:29;;;;;;;17.77;8.90;;;;;;;;;;6243433;23;20167;-88
2021/12/07 21:48:34;;;;;;;23.07;9.50;;;;;;;;;;6242334;23;20178;-89
2021/12/07 21:51:39;;;;;;;20.13;8.63;;;;;;;;;;6241356;23;20225;-91
2021/12/07 21:54:45;;;;;;;19.57;8.17;;;;;;;;;;6242380;23;20241;-90
2021/12/07 21:57:50;;;;;;;21.13;9.70;;;;;;;;;;6243446;23;20171;-89
2021/12/07 22:00:57;;;;;;;25.53;10.20;;;;;;;;;;6244112;23;20647;-88
2021/12/07 22:04:02;;;;;;;23.70;9.27;;;;;;;;;;6244288;23;20217;-88
2021/12/07 22:07:07;;;;;;;20.03;9.20;;;;;;;;;;6244230;23;20214;-88
2021/12/07 22:10:17;;;;;;;15.33;8.00;;;;;;;;;;6244989;23;20494;-88
2021/12/07 22:13:23;;;;;;;23.03;8.20;;;;;;;;;;6244190;23;20194;-88
2021/12/07 22:16:30;;;;;;;14.10;7.30;;;;;;;;;;6244914;23;20162;-89
2021/12/07 22:19:35;;;;;;;15.73;7.37;;;;;;;;;;6245608;23;20158;-88
2021/12/07 22:22:40;;;;;;;13.40;7.40;;;;;;;;;;6244625;23;20169;-90
2021/12/07 22:25:45;;;;;;;22.10;8.40;;;;;;;;;;6240597;23;20161;-90
2021/12/07 22:28:50;;;;;;;20.23;9.03;;;;;;;;;;6243965;23;20693;-91
2021/12/07 22:31:57;;;;;;;17.97;8.27;;;;;;;;;;6243495;23;20173;-88
2021/12/07 22:35:03;;;;;;;22.13;7.73;;;;;;;;;;6244831;23;20293;-89
2021/12/07 22:38:08;;;;;;;14.03;7.77;;;;;;;;;;6261682;23;20175;-88
2021/12/07 22:41:14;;;;;;;15.77;7.43;;;;;;;;;;6243301;23;20209;-87
2021/12/07 22:44:19;;;;;;;17.83;8.33;;;;;;;;;;6242646;23;20250;-90
2021/12/07 22:47:27;;;;;;;15.77;7.93;;;;;;;;;;6244322;23;20194;-88
2021/12/07 22:50:34;;;;;;;16.00;8.00;;;;;;;;;;6244569;23;20158;-88
2021/12/07 22:53:38;;;;;;;17.17;7.73;;;;;;;;;;6244040;23;20743;-90
2021/12/07 22:56:44;;;;;;;17.20;8.30;;;;;;;;;;6244681;23;20157;-89
2021/12/07 22:59:49;;;;;;;15.50;7.97;;;;;;;;;;6245243;23;20175;-90
2021/12/07 23:03:21;;;;;;;15.60;8.30;;;;;;;;;;6243925;23;20493;-89
2021/12/07 23:06:28;;;;;;;16.90;8.10;;;;;;;;;;6243884;23;20193;-89
2021/12/07 23:09:33;;;;;;;17.33;8.13;;;;;;;;;;6243742;23;20166;-89
2021/12/07 23:12:38;;;;;;;20.17;8.90;;;;;;;;;;6247599;23;20170;-88
2021/12/07 23:15:45;;;;;;;18.40;9.27;;;;;;;;;;6245093;22;20166;-90
2021/12/07 23:18:51;;;;;;;20.43;9.17;;;;;;;;;;6246506;23;20174;-89
2021/12/07 23:21:57;;;;;;;17.27;8.40;;;;;;;;;;6244517;23;20261;-90
2021/12/07 23:25:12;;;;;;;21.83;9.03;;;;;;;;;;6243600;23;20166;-89
2021/12/07 23:28:18;;;;;;;24.50;8.80;;;;;;;;;;6248052;23;20212;-88
2021/12/07 23:31:23;;;;;;;26.83;9.83;;;;;;;;;;6247082;23;20614;-88
2021/12/07 23:34:29;;;;;;;20.53;9.40;;;;;;;;;;6246338;23;20165;-89
2021/12/07 23:37:36;;;;;;;19.67;8.90;;;;;;;;;;6261957;23;20170;-86
2021/12/07 23:40:44;;;;;;;18.70;8.87;;;;;;;;;;6262847;23;20151;-88
2021/12/07 23:43:50;;;;;;;20.97;9.10;;;;;;;;;;6262120;23;20237;-90
2021/12/07 23:46:55;;;;;;;19.40;8.90;;;;;;;;;;6244574;23;20194;-88
2021/12/07 23:50:00;;;;;;;20.20;8.77;;;;;;;;;;6244808;23;20217;-89
2021/12/07 23:53:07;;;;;;;19.03;9.07;;;;;;;;;;6261645;23;20222;-90
2021/12/07 23:56:12;;;;;;;21.23;9.77;;;;;;;;;;6246361;23;20154;-88
2021/12/07 23:59:17;;;;;;;19.43;8.97;;;;;;;;;;6245459;23;20182;-91
